GCGM/GMZ METAR and TAF weather

Enter ICAO airport designator
Station Type Date Time Source
GCGM METAR 2021/04/14 19:00 UTC NOAA

GCGM 141900Z AUTO VRB09G19KT CAVOK 22/14 Q1016 RMK R09/VRB02KT ARP/VRB04KT


Station Type Date Time Source
GCGM Decoded METAR 2021/04/14 19:00 UTC NOAA

Station name not available
Apr 14, 2021 - 03:00 PM EDT / 2021.04.14 1900 UTC
Wind: Variable at 10 MPH (9 KT) gusting to 22 MPH (19 KT):0
Visibility: greater than 7 mile(s):0
Temperature: 71 F (22 C)
Dew Point: 57 F (14 C)
Relative Humidity: 60%
Pressure (altimeter): 30.00 in. Hg (1016 hPa)
ob: GCGM 141900Z AUTO VRB09G19KT CAVOK 22/14 Q1016 RMK R09/VRB02KT ARP/VRB04KT
cycle: 19

Station Type Date Time Source
GCGM TAF 2021/04/14 15:00 UTC NOAA

TAF GCGM 141400Z 1415/1515 12008KT 9999 FEW020 TX24/1415Z TN18/1507Z

Example: see airport list